createdAt,value
2018-04-29T00:01:19.037Z,11.40
2018-04-29T00:03:45.254Z,11.40
2018-04-29T00:06:12.195Z,11.40
2018-04-29T00:08:39.167Z,11.40
2018-04-29T00:11:05.358Z,11.40
2018-04-29T00:13:32.342Z,11.40
2018-04-29T00:15:58.583Z,11.40
2018-04-29T00:18:24.803Z,11.40
2018-04-29T00:20:51.083Z,11.40
2018-04-29T00:23:17.303Z,11.40
2018-04-29T00:25:44.267Z,11.50
2018-04-29T00:28:11.226Z,11.50
2018-04-29T00:30:38.175Z,11.60
2018-04-29T00:33:04.400Z,11.60
2018-04-29T00:35:31.342Z,11.70
2018-04-29T00:37:58.365Z,11.70
2018-04-29T00:40:24.535Z,11.70
2018-04-29T00:42:50.737Z,11.80
2018-04-29T00:45:17.704Z,11.90
2018-04-29T00:47:43.903Z,11.90
2018-04-29T00:50:10.127Z,12.00
2018-04-29T00:52:36.335Z,12.00
2018-04-29T00:55:02.690Z,12.00
2018-04-29T00:57:28.886Z,11.90
2018-04-29T00:59:55.103Z,11.90
2018-04-29T01:02:21.294Z,11.90
2018-04-29T01:04:48.816Z,11.90
2018-04-29T01:07:15.455Z,11.90
2018-04-29T01:09:42.586Z,12.00
2018-04-29T01:12:09.603Z,12.00
2018-04-29T01:14:35.863Z,12.00
2018-04-29T01:17:02.075Z,12.00
2018-04-29T01:19:28.291Z,12.00
2018-04-29T01:21:54.515Z,12.00
2018-04-29T01:24:20.714Z,12.00
2018-04-29T01:26:46.935Z,12.00
2018-04-29T01:29:13.910Z,12.10
2018-04-29T01:31:40.894Z,12.10
2018-04-29T01:34:07.098Z,12.00
2018-04-29T01:36:33.325Z,12.00
2018-04-29T01:38:59.527Z,11.90
2018-04-29T01:41:25.747Z,12.00
2018-04-29T01:43:53.426Z,11.90
2018-04-29T01:46:20.407Z,12.00
2018-04-29T01:48:46.598Z,12.00
2018-04-29T01:51:12.794Z,12.00
2018-04-29T01:53:39.015Z,12.00
2018-04-29T01:56:05.235Z,12.00
2018-04-29T01:58:31.451Z,12.00
2018-04-29T02:00:57.642Z,11.90
2018-04-29T02:03:23.879Z,11.90
2018-04-29T02:05:50.810Z,12.00
2018-04-29T02:08:17.032Z,12.00
2018-04-29T02:10:43.219Z,12.10
2018-04-29T02:13:09.443Z,12.10
2018-04-29T02:15:35.635Z,12.10
2018-04-29T02:18:02.587Z,12.10
2018-04-29T02:20:29.542Z,12.20
2018-04-29T02:22:56.473Z,12.20
2018-04-29T02:25:23.422Z,12.20
2018-04-29T02:27:50.423Z,12.10
2018-04-29T02:30:16.664Z,12.10
2018-04-29T02:32:42.859Z,12.10
2018-04-29T02:35:09.079Z,12.20
2018-04-29T02:37:35.270Z,12.20
2018-04-29T02:40:01.515Z,12.20
2018-04-29T02:42:28.438Z,12.20
2018-04-29T02:44:54.648Z,12.20
2018-04-29T02:47:20.843Z,12.20
2018-04-29T02:49:47.035Z,12.10
2018-04-29T02:52:13.247Z,12.20
2018-04-29T02:54:40.215Z,12.20
2018-04-29T02:57:06.455Z,12.10
2018-04-29T02:59:33.395Z,12.20
2018-04-29T03:02:00.348Z,12.10
2018-04-29T03:04:27.288Z,12.20
2018-04-29T03:06:54.263Z,12.20
2018-04-29T03:09:20.451Z,12.10
2018-04-29T03:11:47.399Z,12.20
2018-04-29T03:14:14.370Z,12.20
2018-04-29T03:16:41.306Z,12.20
2018-04-29T03:19:08.263Z,12.20
2018-04-29T03:21:35.260Z,12.20
2018-04-29T03:24:01.483Z,12.20
2018-04-29T03:26:27.679Z,12.20
2018-04-29T03:28:53.891Z,12.20
2018-04-29T03:31:20.884Z,12.20
2018-04-29T03:33:47.130Z,12.20
2018-04-29T03:36:13.322Z,12.20
2018-04-29T03:38:39.510Z,12.20
2018-04-29T03:41:06.467Z,12.10
2018-04-29T03:43:33.393Z,12.10
2018-04-29T03:45:59.611Z,12.00
2018-04-29T03:48:25.803Z,12.00
2018-04-29T03:50:52.010Z,12.10
2018-04-29T03:53:18.206Z,12.00
2018-04-29T03:55:44.446Z,12.00
2018-04-29T03:58:23.695Z,12.00
2018-04-29T04:01:03.179Z,12.00
2018-04-29T04:03:41.779Z,12.00
2018-04-29T04:06:08.000Z,12.00
2018-04-29T04:08:34.195Z,12.00
2018-04-29T04:11:01.182Z,12.10
2018-04-29T04:13:27.414Z,12.00
2018-04-29T04:15:53.618Z,12.00
2018-04-29T04:18:19.849Z,12.00
2018-04-29T04:20:46.793Z,12.00
2018-04-29T04:23:13.754Z,12.00
2018-04-29T04:25:39.947Z,12.00
2018-04-29T04:28:06.911Z,12.20
2018-04-29T04:30:33.859Z,12.30
2018-04-29T04:33:00.815Z,12.40
2018-04-29T04:35:27.019Z,12.40
2018-04-29T04:37:53.983Z,12.40
2018-04-29T04:40:20.914Z,12.20
2018-04-29T04:42:47.875Z,12.10
2018-04-29T04:45:14.143Z,12.00
2018-04-29T04:47:40.371Z,12.10
2018-04-29T04:50:06.588Z,12.20
2018-04-29T04:52:32.851Z,12.20
2018-04-29T04:54:59.047Z,12.20
2018-04-29T04:57:25.258Z,12.30
2018-04-29T04:59:51.479Z,12.40
2018-04-29T05:02:17.676Z,12.40
2018-04-29T05:04:43.894Z,12.50
2018-04-29T05:07:10.088Z,12.50
2018-04-29T05:09:36.299Z,12.40
2018-04-29T05:12:02.520Z,12.30
2018-04-29T05:14:28.763Z,12.40
2018-04-29T05:16:54.954Z,12.30
2018-04-29T05:19:21.171Z,12.30
2018-04-29T05:21:47.387Z,12.30
2018-04-29T05:24:13.659Z,12.40
2018-04-29T05:26:40.595Z,12.30
2018-04-29T05:29:07.535Z,12.30
2018-04-29T05:31:34.514Z,12.20
2018-04-29T05:34:00.711Z,12.20
2018-04-29T05:36:26.931Z,12.10
2018-04-29T05:38:53.124Z,12.10
2018-04-29T05:41:19.342Z,12.30
2018-04-29T05:43:45.535Z,12.40
2018-04-29T05:46:12.495Z,12.40
2018-04-29T05:48:38.682Z,12.40
2018-04-29T05:51:04.894Z,12.40
2018-04-29T05:53:31.086Z,12.50
2018-04-29T05:55:57.334Z,12.50
2018-04-29T05:58:23.523Z,12.50
2018-04-29T06:00:50.491Z,12.70
2018-04-29T06:03:16.678Z,12.70
2018-04-29T06:05:42.963Z,13.10
2018-04-29T06:08:09.159Z,13.80
2018-04-29T06:10:36.114Z,14.70
2018-04-29T06:13:03.046Z,15.10
2018-04-29T06:15:30.060Z,15.50
2018-04-29T06:17:56.279Z,15.50
2018-04-29T06:20:22.518Z,15.90
2018-04-29T06:22:48.714Z,16.60
2018-04-29T06:25:14.943Z,17.00
2018-04-29T06:27:41.155Z,17.40
2018-04-29T06:30:07.393Z,17.90
2018-04-29T06:32:33.600Z,18.00
2018-04-29T06:35:00.562Z,19.20
2018-04-29T06:37:27.499Z,19.90
2018-04-29T06:39:54.810Z,20.30
2018-04-29T06:42:21.014Z,20.20
2018-04-29T06:44:47.210Z,20.60
2018-04-29T06:47:14.179Z,21.20
2018-04-29T06:49:40.380Z,21.10
2018-04-29T06:52:06.619Z,21.70
2018-04-29T06:54:33.555Z,21.20
2018-04-29T06:56:59.819Z,21.20
2018-04-29T06:59:26.015Z,20.90
2018-04-29T07:01:52.983Z,21.90
2018-04-29T07:04:19.183Z,21.90
2018-04-29T07:06:46.151Z,23.40
2018-04-29T07:09:12.607Z,23.30
2018-04-29T07:11:38.863Z,23.50
2018-04-29T07:14:05.331Z,24.20
2018-04-29T07:16:31.519Z,24.60
2018-04-29T07:18:57.714Z,24.70
2018-04-29T07:21:23.930Z,25.30
2018-04-29T07:23:50.859Z,26.60
2018-04-29T07:26:17.812Z,26.70
2018-04-29T07:28:44.806Z,27.30
2018-04-29T07:31:11.718Z,27.60
2018-04-29T07:33:37.911Z,27.60
2018-04-29T07:36:04.131Z,27.40
2018-04-29T07:38:30.314Z,27.80
2018-04-29T07:40:56.531Z,27.10
2018-04-29T07:43:22.722Z,27.20
2018-04-29T07:45:48.940Z,27.60
2018-04-29T07:48:15.133Z,28.10
2018-04-29T07:50:41.343Z,28.30
2018-04-29T07:53:08.279Z,28.30
2018-04-29T07:55:35.300Z,28.70
2018-04-29T07:58:01.496Z,28.60
2018-04-29T08:00:27.719Z,28.50
2018-04-29T08:02:53.907Z,28.30
2018-04-29T08:05:20.908Z,29.20
2018-04-29T08:07:47.145Z,29.20
2018-04-29T08:10:13.370Z,29.50
2018-04-29T08:12:39.563Z,29.60
2018-04-29T08:15:05.807Z,28.90
2018-04-29T08:17:32.007Z,28.70
2018-04-29T08:19:58.963Z,26.80
2018-04-29T08:22:25.151Z,26.80
2018-04-29T08:24:51.371Z,26.40
2018-04-29T08:27:17.566Z,26.70
2018-04-29T08:29:43.815Z,27.30
2018-04-29T08:32:10.002Z,27.60
2018-04-29T08:34:36.934Z,27.50
2018-04-29T08:37:03.899Z,27.90
2018-04-29T08:39:30.130Z,27.90
2018-04-29T08:41:56.420Z,27.10
2018-04-29T08:44:22.571Z,26.40
2018-04-29T08:46:49.539Z,26.60
2018-04-29T08:49:15.990Z,26.60
2018-04-29T08:51:42.207Z,26.20
2018-04-29T08:54:08.393Z,25.70
2018-04-29T08:56:34.615Z,26.00
2018-04-29T08:59:00.807Z,26.80
2018-04-29T09:01:27.023Z,26.70
2018-04-29T09:03:53.979Z,27.30
2018-04-29T09:06:20.133Z,28.30
2018-04-29T09:08:46.318Z,29.10
2018-04-29T09:11:12.539Z,29.90
2018-04-29T09:13:38.734Z,29.50
2018-04-29T09:16:04.995Z,29.70
2018-04-29T09:18:31.931Z,29.80
2018-04-29T09:20:58.895Z,29.70
2018-04-29T09:23:25.095Z,29.60
2018-04-29T09:25:52.059Z,30.30
2018-04-29T09:28:19.003Z,29.60
2018-04-29T09:30:46.010Z,30.20
2018-04-29T09:33:12.205Z,30.20
2018-04-29T09:35:38.442Z,29.50
2018-04-29T09:38:04.643Z,29.70
2018-04-29T09:40:30.883Z,29.90
2018-04-29T09:42:57.074Z,29.60
2018-04-29T09:45:23.298Z,29.70
2018-04-29T09:47:49.508Z,30.50
2018-04-29T09:50:16.502Z,32.10
2018-04-29T09:52:43.443Z,31.90
2018-04-29T09:55:10.485Z,32.80
2018-04-29T09:57:36.662Z,32.80
2018-04-29T10:00:02.934Z,33.00
2018-04-29T10:02:31.148Z,32.20
2018-04-29T10:05:06.867Z,32.50
2018-04-29T10:07:33.802Z,33.10
2018-04-29T10:10:00.026Z,33.00
2018-04-29T10:12:26.231Z,33.00
2018-04-29T10:14:52.543Z,33.40
2018-04-29T10:17:18.747Z,33.00
2018-04-29T10:19:44.967Z,32.80
2018-04-29T10:22:11.897Z,33.40
2018-04-29T10:24:38.303Z,33.40
2018-04-29T10:27:04.459Z,33.00
2018-04-29T10:29:30.656Z,32.50
2018-04-29T10:31:56.875Z,32.80
2018-04-29T10:34:23.122Z,33.10
2018-04-29T10:36:49.315Z,33.60
2018-04-29T10:39:15.528Z,34.80
2018-04-29T10:41:41.743Z,35.60
2018-04-29T10:44:08.683Z,35.80
2018-04-29T10:46:35.639Z,34.80
2018-04-29T10:49:02.566Z,34.50
2018-04-29T10:51:28.799Z,34.40
2018-04-29T10:53:55.735Z,35.00
2018-04-29T10:56:21.948Z,35.00
2018-04-29T10:58:48.170Z,35.40
2018-04-29T11:01:14.448Z,36.20
2018-04-29T11:03:40.667Z,36.00
2018-04-29T11:06:07.635Z,36.10
2018-04-29T11:08:33.830Z,36.10
2018-04-29T11:11:00.045Z,36.30
2018-04-29T11:13:27.031Z,35.50
2018-04-29T11:15:53.260Z,35.50
2018-04-29T11:18:20.219Z,36.20
2018-04-29T11:20:46.447Z,36.20
2018-04-29T11:23:12.644Z,36.40
2018-04-29T11:25:39.599Z,36.00
2018-04-29T11:28:06.535Z,35.90
2018-04-29T11:30:32.719Z,35.80
2018-04-29T11:32:58.931Z,36.00
2018-04-29T11:35:25.123Z,36.50
2018-04-29T11:37:52.086Z,36.70
2018-04-29T11:40:19.094Z,36.40
2018-04-29T11:42:46.046Z,36.60
2018-04-29T11:45:12.347Z,36.50
2018-04-29T11:47:38.568Z,37.40
2018-04-29T11:50:04.758Z,37.80
2018-04-29T11:52:31.711Z,38.30
2018-04-29T11:54:58.783Z,38.20
2018-04-29T11:57:25.060Z,38.20
2018-04-29T11:59:51.252Z,38.00
2018-04-29T12:02:17.491Z,37.40
2018-04-29T12:04:43.687Z,37.30
2018-04-29T12:07:09.898Z,37.30
2018-04-29T12:09:36.831Z,37.10
2018-04-29T12:12:03.799Z,37.60
2018-04-29T12:14:30.765Z,38.40
2018-04-29T12:16:56.997Z,38.40
2018-04-29T12:19:23.194Z,37.70
2018-04-29T12:21:50.162Z,36.90
2018-04-29T12:24:16.369Z,36.90
2018-04-29T12:26:42.624Z,36.20
2018-04-29T12:29:08.824Z,36.30
2018-04-29T12:31:35.795Z,37.70
2018-04-29T12:34:02.028Z,37.70
2018-04-29T12:36:28.275Z,37.70
2018-04-29T12:38:54.483Z,38.30
2018-04-29T12:41:20.730Z,38.40
2018-04-29T12:43:46.958Z,38.50
2018-04-29T12:46:13.187Z,38.10
2018-04-29T12:48:39.415Z,38.20
2018-04-29T12:51:05.658Z,38.40
2018-04-29T12:53:31.867Z,38.50
2018-04-29T12:55:58.090Z,38.20
2018-04-29T12:58:24.291Z,37.70
2018-04-29T13:00:51.263Z,37.70
2018-04-29T13:03:17.492Z,37.70
2018-04-29T13:05:43.783Z,38.20
2018-04-29T13:08:09.955Z,38.60
2018-04-29T13:10:36.187Z,38.50
2018-04-29T13:13:03.843Z,37.20
2018-04-29T13:15:30.087Z,37.20
2018-04-29T13:17:56.322Z,36.50
2018-04-29T13:20:22.571Z,36.80
2018-04-29T13:22:48.771Z,37.00
2018-04-29T13:25:14.991Z,37.50
2018-04-29T13:27:41.185Z,36.90
2018-04-29T13:30:08.172Z,37.40
2018-04-29T13:32:34.446Z,37.40
2018-04-29T13:35:00.674Z,37.20
2018-04-29T13:37:26.871Z,36.50
2018-04-29T13:39:53.087Z,36.40
2018-04-29T13:42:19.375Z,36.40
2018-04-29T13:44:45.535Z,36.30
2018-04-29T13:47:11.722Z,36.30
2018-04-29T13:49:37.943Z,37.00
2018-04-29T13:52:04.140Z,37.00
2018-04-29T13:54:30.354Z,36.60
2018-04-29T13:56:56.798Z,37.00
2018-04-29T13:59:23.015Z,37.00
2018-04-29T14:01:49.272Z,36.80
2018-04-29T14:04:15.455Z,35.80
2018-04-29T14:06:42.459Z,35.20
2018-04-29T14:09:08.673Z,35.20
2018-04-29T14:11:34.867Z,35.20
2018-04-29T14:14:01.123Z,34.50
2018-04-29T14:16:27.323Z,34.20
2018-04-29T14:18:53.543Z,34.30
2018-04-29T14:21:20.505Z,34.60
2018-04-29T14:23:47.059Z,34.50
2018-04-29T14:26:13.263Z,34.50
2018-04-29T14:28:39.487Z,33.60
2018-04-29T14:31:05.699Z,33.80
2018-04-29T14:33:32.667Z,33.60
2018-04-29T14:35:58.870Z,33.60
2018-04-29T14:38:25.839Z,33.40
2018-04-29T14:40:52.059Z,33.40
2018-04-29T14:43:19.053Z,33.40
2018-04-29T14:45:45.258Z,33.30
2018-04-29T14:48:11.496Z,33.60
2018-04-29T14:50:37.699Z,32.70
2018-04-29T14:53:04.650Z,31.20
2018-04-29T14:55:30.879Z,31.10
2018-04-29T14:57:57.080Z,31.10
2018-04-29T15:00:23.306Z,31.30
2018-04-29T15:02:49.513Z,31.40
2018-04-29T15:05:15.740Z,30.60
2018-04-29T15:07:41.943Z,30.50
2018-04-29T15:10:08.230Z,30.40
2018-04-29T15:12:35.172Z,30.90
2018-04-29T15:15:01.415Z,30.90
2018-04-29T15:17:27.655Z,31.20
2018-04-29T15:19:53.896Z,30.90
2018-04-29T15:22:20.090Z,30.50
2018-04-29T15:24:46.318Z,30.30
2018-04-29T15:27:12.520Z,30.60
2018-04-29T15:29:38.759Z,30.60
2018-04-29T15:32:04.958Z,30.60
2018-04-29T15:34:31.183Z,29.80
2018-04-29T15:36:57.383Z,29.50
2018-04-29T15:39:31.394Z,29.00
2018-04-29T15:41:58.327Z,29.20
2018-04-29T15:44:25.313Z,29.40
2018-04-29T15:46:51.530Z,29.40
2018-04-29T15:49:17.756Z,29.40
2018-04-29T15:51:43.950Z,29.10
2018-04-29T15:54:10.173Z,29.10
2018-04-29T15:56:36.374Z,28.50
2018-04-29T15:59:02.614Z,27.60
2018-04-29T16:01:28.839Z,27.50
2018-04-29T16:03:55.080Z,27.80
2018-04-29T16:06:21.278Z,28.20
2018-04-29T16:08:47.528Z,28.30
2018-04-29T16:11:13.730Z,28.00
2018-04-29T16:13:39.950Z,27.70
2018-04-29T16:16:06.206Z,27.50
2018-04-29T16:18:32.398Z,27.40
2018-04-29T16:20:58.622Z,27.20
2018-04-29T16:23:24.822Z,26.90
2018-04-29T16:25:51.055Z,26.70
2018-04-29T16:28:17.247Z,26.60
2018-04-29T16:30:43.466Z,26.10
2018-04-29T16:33:09.667Z,25.70
2018-04-29T16:35:35.903Z,25.60
2018-04-29T16:38:02.183Z,25.50
2018-04-29T16:40:28.362Z,25.50
2018-04-29T16:42:54.587Z,25.20
2018-04-29T16:45:20.787Z,24.80
2018-04-29T16:47:47.015Z,24.50
2018-04-29T16:50:13.214Z,24.20
2018-04-29T16:52:39.430Z,23.90
2018-04-29T16:55:12.647Z,23.50
2018-04-29T16:57:38.891Z,23.20
2018-04-29T17:00:05.116Z,22.90
2018-04-29T17:02:31.340Z,22.60
2018-04-29T17:04:57.539Z,22.20
2018-04-29T17:07:23.763Z,21.90
2018-04-29T17:09:49.963Z,21.90
2018-04-29T17:12:16.359Z,21.70
2018-04-29T17:14:42.563Z,21.60
2018-04-29T17:17:08.785Z,21.40
2018-04-29T17:19:34.987Z,21.30
2018-04-29T17:22:01.211Z,21.20
2018-04-29T17:24:27.408Z,21.10
2018-04-29T17:26:54.376Z,20.80
2018-04-29T17:29:21.344Z,20.60
2018-04-29T17:31:47.594Z,20.60
2018-04-29T17:34:13.799Z,20.50
2018-04-29T17:36:40.036Z,20.40
2018-04-29T17:39:06.664Z,20.20
2018-04-29T17:41:32.896Z,20.00
2018-04-29T17:43:59.094Z,19.80
2018-04-29T17:46:26.038Z,19.60
2018-04-29T17:48:53.011Z,19.60
2018-04-29T17:51:19.212Z,19.50
2018-04-29T17:53:45.438Z,19.50
2018-04-29T17:56:11.648Z,19.40
2018-04-29T17:58:37.894Z,19.30
2018-04-29T18:01:04.102Z,19.20
2018-04-29T18:03:30.322Z,19.20
2018-04-29T18:05:56.523Z,19.00
2018-04-29T18:08:22.768Z,18.80
2018-04-29T18:10:48.975Z,18.70
2018-04-29T18:13:15.233Z,18.60
2018-04-29T18:15:41.435Z,18.50
2018-04-29T18:18:07.682Z,18.50
2018-04-29T18:20:33.871Z,18.50
2018-04-29T18:23:00.861Z,18.50
2018-04-29T18:25:27.071Z,18.50
2018-04-29T18:27:53.294Z,18.30
2018-04-29T18:30:19.502Z,18.10
2018-04-29T18:32:46.471Z,17.90
2018-04-29T18:35:12.691Z,17.90
2018-04-29T18:37:39.646Z,17.60
2018-04-29T18:40:05.885Z,17.60
2018-04-29T18:42:32.111Z,17.50
2018-04-29T18:44:58.311Z,17.50
2018-04-29T18:47:25.286Z,17.40
2018-04-29T18:49:51.495Z,17.40
2018-04-29T18:52:18.458Z,17.40
2018-04-29T18:54:44.663Z,17.30
2018-04-29T18:57:11.634Z,17.30
2018-04-29T18:59:37.845Z,17.30
2018-04-29T19:02:04.815Z,17.20
2018-04-29T19:04:31.023Z,17.20
2018-04-29T19:06:57.246Z,17.20
2018-04-29T19:09:24.186Z,17.20
2018-04-29T19:11:51.154Z,17.30
2018-04-29T19:14:17.362Z,17.20
2018-04-29T19:16:44.322Z,17.20
2018-04-29T19:19:10.506Z,17.20
2018-04-29T19:21:36.723Z,17.20
2018-04-29T19:24:03.017Z,17.20
2018-04-29T19:26:29.167Z,17.20
2018-04-29T19:28:55.362Z,17.20
2018-04-29T19:31:22.389Z,17.20
2018-04-29T19:33:48.556Z,17.20
2018-04-29T19:36:14.771Z,17.20
2018-04-29T19:38:40.979Z,17.20
2018-04-29T19:41:07.232Z,17.20
2018-04-29T19:43:33.428Z,17.10
2018-04-29T19:45:59.718Z,17.20
2018-04-29T19:48:25.934Z,17.10
2018-04-29T19:50:52.126Z,17.10
2018-04-29T19:53:19.112Z,17.10
2018-04-29T19:55:45.323Z,17.10
2018-04-29T19:58:11.544Z,17.10
2018-04-29T20:00:37.768Z,17.00
2018-04-29T20:03:04.700Z,17.00
2018-04-29T20:05:31.670Z,17.00
2018-04-29T20:07:57.863Z,17.00
2018-04-29T20:10:24.081Z,16.90
2018-04-29T20:12:50.335Z,16.90
2018-04-29T20:15:17.535Z,16.80
2018-04-29T20:17:43.750Z,16.80
2018-04-29T20:20:09.987Z,16.80
2018-04-29T20:22:36.215Z,16.70
2018-04-29T20:25:02.415Z,16.70
2018-04-29T20:27:29.376Z,16.50
2018-04-29T20:29:55.604Z,16.50
2018-04-29T20:32:34.287Z,16.50
2018-04-29T20:35:01.255Z,16.50
2018-04-29T20:37:28.196Z,16.50
2018-04-29T20:39:55.159Z,16.50
2018-04-29T20:42:22.092Z,16.50
2018-04-29T20:44:49.027Z,16.50
2018-04-29T20:49:46.935Z,16.40
2018-04-29T20:52:13.150Z,16.40
2018-04-29T20:54:40.101Z,16.40
2018-04-29T20:57:07.054Z,16.40
2018-04-29T20:59:34.154Z,16.40
2018-04-29T21:02:00.347Z,16.40
2018-04-29T21:04:26.563Z,16.30
2018-04-29T21:06:52.778Z,16.20
2018-04-29T21:09:19.714Z,16.20
2018-04-29T21:11:45.934Z,16.20
2018-04-29T21:14:12.183Z,16.20
2018-04-29T21:16:38.439Z,16.20
2018-04-29T21:19:04.638Z,16.20
2018-04-29T21:21:31.623Z,16.20
2018-04-29T21:23:57.811Z,16.10
2018-04-29T21:26:25.107Z,16.10
2018-04-29T21:28:51.314Z,16.10
2018-04-29T21:31:17.531Z,16.10
2018-04-29T21:33:44.462Z,16.10
2018-04-29T21:36:10.678Z,16.00
2018-04-29T21:38:36.875Z,16.10
2018-04-29T21:41:03.087Z,16.10
2018-04-29T21:43:29.278Z,16.10
2018-04-29T21:45:55.495Z,16.00
2018-04-29T21:48:21.691Z,16.00
2018-04-29T21:50:47.979Z,16.00
2018-04-29T21:53:14.910Z,16.00
2018-04-29T21:55:41.131Z,15.90
2018-04-29T21:58:07.329Z,15.90
2018-04-29T22:00:33.542Z,15.90
2018-04-29T22:02:59.735Z,15.90
2018-04-29T22:05:26.701Z,15.90
2018-04-29T22:07:52.895Z,15.90
2018-04-29T22:10:19.131Z,15.90
2018-04-29T22:12:46.098Z,15.90
2018-04-29T22:15:12.323Z,15.90
2018-04-29T22:17:39.274Z,16.00
2018-04-29T22:20:05.502Z,16.00
2018-04-29T22:22:32.447Z,16.10
2018-04-29T22:24:59.439Z,16.10
2018-04-29T22:27:25.655Z,16.00
2018-04-29T22:29:51.895Z,16.00
2018-04-29T22:34:50.947Z,16.00
2018-04-29T22:37:17.966Z,15.90
2018-04-29T22:39:44.143Z,15.90
2018-04-29T22:42:10.371Z,15.90
2018-04-29T22:44:36.755Z,15.90
2018-04-29T22:47:02.963Z,15.80
2018-04-29T22:49:29.164Z,15.80
2018-04-29T22:51:55.391Z,15.80
2018-04-29T22:54:21.687Z,15.80
2018-04-29T22:56:47.891Z,15.90
2018-04-29T22:59:14.091Z,15.90
2018-04-29T23:01:40.314Z,15.90
2018-04-29T23:04:06.540Z,15.90
2018-04-29T23:06:32.750Z,15.90
2018-04-29T23:08:59.719Z,15.90
2018-04-29T23:11:25.919Z,15.90
2018-04-29T23:13:52.920Z,15.80
2018-04-29T23:16:19.120Z,15.80
2018-04-29T23:18:45.493Z,15.80
2018-04-29T23:21:12.471Z,15.70
2018-04-29T23:23:39.427Z,15.70
2018-04-29T23:26:06.390Z,15.70
2018-04-29T23:28:32.642Z,15.60
2018-04-29T23:30:58.839Z,15.70
2018-04-29T23:33:26.043Z,15.60
2018-04-29T23:35:52.270Z,15.60
2018-04-29T23:38:18.466Z,15.60
2018-04-29T23:40:44.682Z,15.60
2018-04-29T23:43:10.906Z,15.60
2018-04-29T23:45:37.866Z,15.60
2018-04-29T23:48:04.331Z,15.60
2018-04-29T23:50:30.536Z,15.60
2018-04-29T23:52:56.739Z,15.50
2018-04-29T23:55:23.716Z,15.50
2018-04-29T23:57:49.919Z,15.50
